Time;durP1;ratioP1;P1;durP2;ratioP2;P2;SDS_P1;SDS_P2;PMS_P1;PMS_P2;Temp;Humidity;BMP_temperature;BMP_pressure;BME280_temperature;BME280_humidity;BME280_pressure;Samples;Min_cycle;Max_cycle;Signal;HPM_P1;HPM_P2
2021/07/01 00:00:17;;;;;;;3.65;2.50;;;;;;;;;;5034725;28;20100;-62
2021/07/01 00:02:43;;;;;;;2.83;1.92;;;;;;;;;;5033342;28;20065;-62
2021/07/01 00:05:11;;;;;;;3.45;2.30;;;;;;;;;;5031210;28;20034;-62
2021/07/01 00:07:38;;;;;;;2.47;2.08;;;;;;;;;;5033106;28;20122;-62
2021/07/01 00:10:09;;;;;;;3.25;2.05;;;;;;;;;;5025332;28;20145;-62
2021/07/01 00:12:35;;;;;;;2.90;2.10;;;;;;;;;;5030927;28;20041;-61
2021/07/01 00:15:00;;;;;;;2.75;1.88;;;;;;;;;;5032437;28;20486;-62
2021/07/01 00:17:26;;;;;;;3.30;1.70;;;;;;;;;;5030867;28;20053;-61
2021/07/01 00:19:51;;;;;;;3.28;1.80;;;;;;;;;;5031581;28;20066;-62
2021/07/01 00:22:16;;;;;;;3.25;1.70;;;;;;;;;;5046992;28;20061;-61
2021/07/01 00:24:42;;;;;;;1.77;1.48;;;;;;;;;;5047470;28;20033;-61
2021/07/01 00:27:07;;;;;;;2.85;1.77;;;;;;;;;;5031414;28;20076;-61
2021/07/01 00:29:33;;;;;;;3.05;1.80;;;;;;;;;;5047994;28;20033;-61
2021/07/01 00:31:58;;;;;;;2.42;1.73;;;;;;;;;;5031882;28;20114;-62
2021/07/01 00:34:24;;;;;;;2.75;1.60;;;;;;;;;;5016559;28;20045;-61
2021/07/01 00:36:49;;;;;;;3.30;1.60;;;;;;;;;;5031892;28;20072;-61
2021/07/01 00:39:15;;;;;;;2.97;1.48;;;;;;;;;;5029538;28;20114;-61
2021/07/01 00:41:40;;;;;;;2.72;1.50;;;;;;;;;;5031306;28;20034;-61
2021/07/01 00:44:06;;;;;;;2.00;1.60;;;;;;;;;;5030592;28;20044;-62
2021/07/01 00:46:33;;;;;;;4.47;1.98;;;;;;;;;;5023204;28;20033;-61
2021/07/01 00:48:59;;;;;;;4.18;1.67;;;;;;;;;;5030951;28;20045;-61
2021/07/01 00:51:26;;;;;;;2.97;1.60;;;;;;;;;;5046529;28;20025;-61
2021/07/01 00:53:52;;;;;;;3.15;1.80;;;;;;;;;;5024079;28;20038;-61
2021/07/01 00:56:19;;;;;;;3.45;1.60;;;;;;;;;;5014639;28;20034;-61
2021/07/01 00:58:45;;;;;;;1.60;1.30;;;;;;;;;;5021887;28;20049;-61
2021/07/01 01:01:11;;;;;;;3.00;1.45;;;;;;;;;;5033288;28;20037;-61
2021/07/01 01:03:38;;;;;;;2.13;1.60;;;;;;;;;;5032325;28;20036;-61
2021/07/01 01:06:07;;;;;;;1.95;1.42;;;;;;;;;;5030623;28;20092;-61
2021/07/01 01:08:38;;;;;;;4.30;1.80;;;;;;;;;;5024509;28;20030;-61
2021/07/01 01:11:04;;;;;;;4.05;1.98;;;;;;;;;;5015671;28;20038;-61
2021/07/01 01:13:35;;;;;;;2.38;1.83;;;;;;;;;;5026402;28;20480;-61
2021/07/01 01:16:20;;;;;;;1.80;1.55;;;;;;;;;;5017895;28;20911;-61
2021/07/01 01:18:46;;;;;;;3.15;1.80;;;;;;;;;;5018289;28;20111;-61
2021/07/01 01:21:17;;;;;;;2.03;1.60;;;;;;;;;;5000497;28;20026;-61
2021/07/01 01:23:43;;;;;;;2.55;1.80;;;;;;;;;;5047318;28;20026;-61
2021/07/01 01:26:11;;;;;;;4.28;2.08;;;;;;;;;;5039024;28;20038;-61
2021/07/01 01:28:47;;;;;;;2.70;1.80;;;;;;;;;;5031301;28;20537;-61
2021/07/01 01:31:13;;;;;;;4.10;1.95;;;;;;;;;;5032571;28;20038;-61
2021/07/01 01:33:39;;;;;;;3.97;2.05;;;;;;;;;;5015051;28;20041;-61
2021/07/01 01:36:04;;;;;;;3.65;1.80;;;;;;;;;;5031231;28;20038;-61
2021/07/01 01:38:33;;;;;;;2.13;1.70;;;;;;;;;;5039121;28;20048;-62
2021/07/01 01:41:25;;;;;;;3.92;1.90;;;;;;;;;;5031253;28;20172;-62
2021/07/01 01:43:51;;;;;;;2.75;2.03;;;;;;;;;;5029962;28;20060;-62
2021/07/01 01:46:17;;;;;;;3.22;1.90;;;;;;;;;;5020822;28;20038;-61
2021/07/01 01:48:42;;;;;;;3.30;2.28;;;;;;;;;;5031506;28;20069;-62
2021/07/01 01:51:08;;;;;;;4.20;2.10;;;;;;;;;;5029939;28;20149;-61
2021/07/01 01:53:33;;;;;;;3.55;2.58;;;;;;;;;;5031185;28;20083;-61
2021/07/01 01:55:59;;;;;;;3.47;2.38;;;;;;;;;;5047389;28;20033;-61
2021/07/01 01:58:26;;;;;;;5.47;2.65;;;;;;;;;;5020873;28;20125;-61
2021/07/01 02:01:10;;;;;;;4.68;2.50;;;;;;;;;;5030589;28;20367;-61
2021/07/01 02:03:35;;;;;;;4.63;2.53;;;;;;;;;;5030488;28;20034;-61
2021/07/01 02:06:27;;;;;;;3.90;2.67;;;;;;;;;;5028296;28;20996;-61
2021/07/01 02:08:53;;;;;;;3.13;2.42;;;;;;;;;;5046162;28;20033;-61
2021/07/01 02:11:18;;;;;;;3.10;2.35;;;;;;;;;;5029750;28;20066;-61
2021/07/01 02:13:44;;;;;;;3.10;2.45;;;;;;;;;;5029388;28;20030;-60
2021/07/01 02:16:38;;;;;;;3.55;2.42;;;;;;;;;;5030884;28;20042;-61
2021/07/01 02:19:04;;;;;;;3.55;2.22;;;;;;;;;;5031914;28;20033;-61
2021/07/01 02:21:30;;;;;;;3.05;2.33;;;;;;;;;;5031482;28;20041;-61
2021/07/01 02:23:55;;;;;;;3.45;2.25;;;;;;;;;;5045726;28;20113;-61
2021/07/01 02:26:21;;;;;;;2.65;1.90;;;;;;;;;;5031190;28;20099;-61
2021/07/01 02:28:46;;;;;;;2.20;2.00;;;;;;;;;;5034095;28;20628;-61
2021/07/01 02:31:21;;;;;;;3.55;2.20;;;;;;;;;;5027773;28;20091;-61
2021/07/01 02:33:47;;;;;;;5.88;2.25;;;;;;;;;;5046882;28;20038;-61
2021/07/01 02:36:12;;;;;;;3.60;2.10;;;;;;;;;;5022032;28;20109;-61
2021/07/01 02:38:58;;;;;;;3.00;2.17;;;;;;;;;;5035789;28;20148;-62
2021/07/01 02:41:24;;;;;;;2.63;1.88;;;;;;;;;;5020447;28;20073;-61
2021/07/01 02:43:52;;;;;;;2.60;2.03;;;;;;;;;;5001069;28;20034;-61
2021/07/01 02:46:36;;;;;;;3.58;2.10;;;;;;;;;;5029327;28;20046;-61
2021/07/01 02:49:06;;;;;;;4.00;2.38;;;;;;;;;;5021061;28;20033;-61
2021/07/01 02:51:33;;;;;;;3.58;2.13;;;;;;;;;;4988171;28;20486;-61
2021/07/01 02:53:58;;;;;;;2.78;2.00;;;;;;;;;;5031915;28;20038;-61
2021/07/01 02:56:26;;;;;;;3.50;2.00;;;;;;;;;;5032131;28;20603;-61
2021/07/01 02:58:51;;;;;;;2.63;1.80;;;;;;;;;;5043326;28;20036;-62
2021/07/01 03:01:36;;;;;;;2.90;1.77;;;;;;;;;;5031430;28;20049;-61
2021/07/01 03:04:20;;;;;;;3.20;1.70;;;;;;;;;;5019575;28;20108;-61
2021/07/01 03:06:46;;;;;;;3.40;1.90;;;;;;;;;;5030613;28;20505;-61
2021/07/01 03:09:11;;;;;;;3.35;1.58;;;;;;;;;;5028029;28;20041;-61
2021/07/01 03:11:38;;;;;;;3.20;1.77;;;;;;;;;;5028341;28;20026;-61
2021/07/01 03:14:05;;;;;;;2.22;1.50;;;;;;;;;;5030118;28;21010;-61
2021/07/01 03:16:32;;;;;;;2.95;1.65;;;;;;;;;;5012691;28;20034;-61
2021/07/01 03:18:58;;;;;;;2.92;1.75;;;;;;;;;;5026159;28;20037;-61
2021/07/01 03:21:41;;;;;;;2.38;1.48;;;;;;;;;;5014115;28;20050;-61
2021/07/01 03:24:07;;;;;;;1.52;1.17;;;;;;;;;;5014958;28;20068;-61
2021/07/01 03:26:33;;;;;;;2.92;1.27;;;;;;;;;;5023418;28;20462;-61
2021/07/01 03:28:58;;;;;;;3.17;1.40;;;;;;;;;;5017738;28;20519;-62
2021/07/01 03:31:26;;;;;;;2.58;1.27;;;;;;;;;;5033555;28;20418;-61
2021/07/01 03:33:51;;;;;;;2.78;1.33;;;;;;;;;;5033402;28;20033;-61
2021/07/01 03:36:17;;;;;;;2.08;1.33;;;;;;;;;;5049038;28;20061;-61
2021/07/01 03:39:03;;;;;;;1.90;1.30;;;;;;;;;;5033080;28;20046;-61
2021/07/01 03:41:49;;;;;;;3.13;1.42;;;;;;;;;;5032928;28;20588;-62
2021/07/01 03:44:17;;;;;;;3.10;1.40;;;;;;;;;;5036026;28;20030;-60
2021/07/01 03:46:42;;;;;;;2.20;1.30;;;;;;;;;;5031822;28;20034;-61
2021/07/01 03:49:08;;;;;;;1.80;1.30;;;;;;;;;;5032191;28;20038;-61
2021/07/01 03:51:42;;;;;;;2.22;1.50;;;;;;;;;;5030100;28;20120;-61
2021/07/01 03:54:20;;;;;;;2.88;1.90;;;;;;;;;;5046985;28;20556;-61
2021/07/01 03:56:45;;;;;;;2.38;1.83;;;;;;;;;;5047473;28;20107;-61
2021/07/01 03:59:17;;;;;;;3.25;2.05;;;;;;;;;;4998737;28;20036;-61
2021/07/01 04:02:01;;;;;;;3.33;2.03;;;;;;;;;;5032502;28;20049;-61
2021/07/01 04:04:28;;;;;;;4.70;2.80;;;;;;;;;;5007759;28;20494;-61
2021/07/01 04:06:54;;;;;;;2.70;2.33;;;;;;;;;;5017059;28;20029;-62
2021/07/01 04:09:20;;;;;;;4.82;2.83;;;;;;;;;;5033114;28;20565;-61
2021/07/01 04:12:06;;;;;;;4.28;2.90;;;;;;;;;;5032028;28;20042;-61
2021/07/01 04:14:36;;;;;;;3.80;2.70;;;;;;;;;;5007870;28;20201;-61
2021/07/01 04:17:20;;;;;;;3.88;3.10;;;;;;;;;;5031273;28;20055;-61
2021/07/01 04:20:05;;;;;;;4.75;3.60;;;;;;;;;;5033605;28;20539;-61
2021/07/01 04:22:49;;;;;;;5.47;3.47;;;;;;;;;;5026461;28;20050;-61
2021/07/01 04:25:33;;;;;;;5.40;3.58;;;;;;;;;;5031901;28;20050;-61
2021/07/01 04:27:59;;;;;;;5.25;3.60;;;;;;;;;;5031051;28;20037;-61
2021/07/01 04:30:26;;;;;;;4.97;3.70;;;;;;;;;;5010072;28;20112;-61
2021/07/01 04:33:10;;;;;;;4.97;3.40;;;;;;;;;;5019417;28;20038;-61
2021/07/01 04:35:35;;;;;;;5.75;3.42;;;;;;;;;;5030642;28;20089;-61
2021/07/01 04:38:02;;;;;;;4.97;3.53;;;;;;;;;;5014341;28;20048;-60
2021/07/01 04:40:27;;;;;;;6.80;4.15;;;;;;;;;;5046875;28;20040;-61
2021/07/01 04:42:53;;;;;;;5.70;3.70;;;;;;;;;;5032796;28;20066;-61
2021/07/01 04:45:19;;;;;;;5.70;3.95;;;;;;;;;;5022840;28;20045;-61
2021/07/01 04:47:44;;;;;;;5.63;4.00;;;;;;;;;;5000491;28;20390;-61
2021/07/01 04:50:10;;;;;;;6.55;3.92;;;;;;;;;;5011391;28;20041;-61
2021/07/01 04:52:39;;;;;;;4.90;3.55;;;;;;;;;;5017608;28;20038;-61
2021/07/01 04:55:23;;;;;;;5.20;3.60;;;;;;;;;;5029928;28;20042;-61
2021/07/01 04:58:11;;;;;;;6.07;4.10;;;;;;;;;;5019411;28;20142;-60
2021/07/01 05:00:41;;;;;;;6.07;4.20;;;;;;;;;;5021880;28;20108;-61
2021/07/01 05:03:25;;;;;;;5.93;4.30;;;;;;;;;;5032104;28;20081;-61
2021/07/01 05:05:51;;;;;;;6.10;4.10;;;;;;;;;;5030545;28;20038;-61
2021/07/01 05:08:18;;;;;;;5.95;4.13;;;;;;;;;;5022160;28;20493;-61
2021/07/01 05:10:47;;;;;;;6.22;4.03;;;;;;;;;;5044677;28;20125;-61
2021/07/01 05:13:14;;;;;;;5.90;4.15;;;;;;;;;;5019384;28;20041;-61
2021/07/01 05:15:41;;;;;;;5.50;3.60;;;;;;;;;;5031983;28;20033;-61
2021/07/01 05:18:07;;;;;;;5.85;3.67;;;;;;;;;;5031686;28;20038;-61
2021/07/01 05:20:36;;;;;;;5.95;3.90;;;;;;;;;;5023245;28;20061;-60
2021/07/01 05:23:20;;;;;;;5.72;3.58;;;;;;;;;;5034212;28;20546;-61
2021/07/01 05:26:05;;;;;;;5.65;3.65;;;;;;;;;;5025015;28;20636;-61
2021/07/01 05:28:50;;;;;;;4.93;3.42;;;;;;;;;;5030514;28;21138;-61
2021/07/01 05:31:34;;;;;;;4.82;2.95;;;;;;;;;;5032095;28;20046;-61
2021/07/01 05:34:18;;;;;;;4.35;2.90;;;;;;;;;;5030984;28;20122;-61
2021/07/01 05:36:44;;;;;;;4.53;2.90;;;;;;;;;;5015303;28;20026;-62
2021/07/01 05:39:14;;;;;;;3.13;2.50;;;;;;;;;;5046902;28;20899;-61
2021/07/01 05:41:42;;;;;;;4.32;2.50;;;;;;;;;;5021597;28;20037;-61
2021/07/01 05:44:08;;;;;;;3.72;2.13;;;;;;;;;;5028826;28;20040;-61
2021/07/01 05:46:46;;;;;;;3.17;2.15;;;;;;;;;;5029517;28;20380;-61
2021/07/01 05:49:12;;;;;;;3.15;2.05;;;;;;;;;;5031078;28;20068;-61
2021/07/01 05:51:39;;;;;;;3.90;2.00;;;;;;;;;;5016347;28;20029;-61
2021/07/01 05:54:16;;;;;;;3.10;2.00;;;;;;;;;;5029990;28;20141;-61
2021/07/01 05:56:45;;;;;;;3.33;1.98;;;;;;;;;;5022559;28;20037;-61
2021/07/01 05:59:10;;;;;;;4.10;2.22;;;;;;;;;;5029524;28;20045;-61
2021/07/01 06:01:37;;;;;;;3.03;1.90;;;;;;;;;;5029429;28;20042;-61
2021/07/01 06:04:04;;;;;;;2.70;1.90;;;;;;;;;;5029309;28;20108;-61
2021/07/01 06:06:59;;;;;;;2.80;1.95;;;;;;;;;;4970514;28;20043;-61
2021/07/01 06:09:30;;;;;;;2.10;1.90;;;;;;;;;;5014702;28;20056;-62
2021/07/01 06:11:58;;;;;;;2.75;2.10;;;;;;;;;;5031350;28;20037;-62
2021/07/01 06:14:25;;;;;;;3.63;2.00;;;;;;;;;;5031711;28;20034;-61
2021/07/01 06:16:56;;;;;;;3.03;2.00;;;;;;;;;;5031173;28;20030;-62
2021/07/01 06:19:22;;;;;;;3.38;1.90;;;;;;;;;;5030981;28;20036;-62
2021/07/01 06:21:49;;;;;;;2.97;1.95;;;;;;;;;;5016185;28;20034;-61
2021/07/01 06:24:15;;;;;;;3.60;1.70;;;;;;;;;;5021502;28;20103;-61
2021/07/01 06:26:42;;;;;;;3.15;1.67;;;;;;;;;;5013786;28;20060;-61
2021/07/01 06:29:08;;;;;;;2.95;1.70;;;;;;;;;;5013811;28;20086;-61
2021/07/01 06:31:34;;;;;;;2.35;1.50;;;;;;;;;;5029833;28;20037;-61
2021/07/01 06:34:00;;;;;;;1.75;1.50;;;;;;;;;;5029418;28;20038;-62
2021/07/01 06:36:28;;;;;;;2.10;1.52;;;;;;;;;;5030734;28;20440;-62
2021/07/01 06:39:12;;;;;;;2.63;1.35;;;;;;;;;;5030181;28;20160;-62
2021/07/01 06:42:08;;;;;;;2.90;1.30;;;;;;;;;;4984301;28;20100;-62
2021/07/01 06:44:52;;;;;;;1.80;1.17;;;;;;;;;;5031628;28;20041;-62
2021/07/01 06:47:37;;;;;;;2.42;1.15;;;;;;;;;;5029905;28;20049;-62
2021/07/01 06:50:23;;;;;;;1.15;0.90;;;;;;;;;;5031018;28;20034;-62
2021/07/01 06:53:07;;;;;;;1.55;1.00;;;;;;;;;;5023414;28;20049;-63
2021/07/01 06:56:03;;;;;;;2.30;1.17;;;;;;;;;;5042340;28;20048;-62
2021/07/01 06:58:36;;;;;;;1.05;0.80;;;;;;;;;;5029276;28;20041;-63
2021/07/01 07:01:02;;;;;;;1.55;0.93;;;;;;;;;;5028051;28;20033;-62
2021/07/01 07:03:29;;;;;;;1.52;0.82;;;;;;;;;;5021954;28;20037;-61
2021/07/01 07:05:55;;;;;;;2.22;1.10;;;;;;;;;;5030577;28;20486;-62
2021/07/01 07:08:21;;;;;;;2.00;1.00;;;;;;;;;;5045152;28;20033;-61
2021/07/01 07:10:48;;;;;;;1.40;1.00;;;;;;;;;;5020862;28;20083;-61
2021/07/01 07:13:14;;;;;;;2.05;1.20;;;;;;;;;;5030195;28;20038;-61
2021/07/01 07:15:42;;;;;;;1.40;0.95;;;;;;;;;;5028752;28;20157;-62
2021/07/01 07:18:27;;;;;;;1.30;1.10;;;;;;;;;;5029720;28;20052;-61
2021/07/01 07:20:54;;;;;;;1.50;0.90;;;;;;;;;;5030150;28;20525;-62
2021/07/01 07:23:27;;;;;;;0.85;0.85;;;;;;;;;;5031503;28;20030;-62
2021/07/01 07:25:54;;;;;;;1.92;1.10;;;;;;;;;;5016417;28;20147;-61
2021/07/01 07:28:22;;;;;;;1.08;0.93;;;;;;;;;;5028397;28;20454;-61
2021/07/01 07:30:53;;;;;;;0.90;0.90;;;;;;;;;;5043626;28;20034;-61
2021/07/01 07:33:22;;;;;;;1.73;0.90;;;;;;;;;;5029099;28;20058;-61
2021/07/01 07:35:48;;;;;;;1.55;0.98;;;;;;;;;;5029716;28;20038;-61
2021/07/01 07:38:13;;;;;;;2.28;1.13;;;;;;;;;;5021145;28;20096;-62
2021/07/01 07:40:39;;;;;;;1.88;1.15;;;;;;;;;;5031041;28;20101;-61
2021/07/01 07:43:06;;;;;;;2.38;1.00;;;;;;;;;;5021244;28;20892;-61
2021/07/01 07:45:32;;;;;;;1.00;0.90;;;;;;;;;;5014856;28;20516;-61
2021/07/01 07:47:57;;;;;;;1.10;0.82;;;;;;;;;;5029349;28;20038;-61
2021/07/01 07:50:22;;;;;;;1.65;1.10;;;;;;;;;;5029545;28;20098;-61
2021/07/01 07:52:49;;;;;;;2.10;0.90;;;;;;;;;;5029586;28;20564;-61
2021/07/01 07:55:16;;;;;;;1.63;1.02;;;;;;;;;;5020866;28;20351;-61
2021/07/01 07:57:43;;;;;;;1.38;0.85;;;;;;;;;;5030169;28;20129;-62
2021/07/01 08:00:09;;;;;;;2.00;1.10;;;;;;;;;;5027478;28;20038;-61
2021/07/01 08:02:52;;;;;;;2.88;1.10;;;;;;;;;;5029002;28;20038;-61
2021/07/01 08:05:22;;;;;;;1.48;0.90;;;;;;;;;;5015255;28;20060;-61
2021/07/01 08:07:48;;;;;;;1.65;0.85;;;;;;;;;;5028048;28;20554;-61
2021/07/01 08:10:17;;;;;;;2.47;1.10;;;;;;;;;;5029888;28;20061;-61
2021/07/01 08:12:46;;;;;;;1.67;1.00;;;;;;;;;;5030583;28;20041;-61
2021/07/01 08:15:13;;;;;;;2.03;0.90;;;;;;;;;;5029934;28;20033;-61
2021/07/01 08:17:43;;;;;;;1.70;1.27;;;;;;;;;;5023378;28;20062;-62
2021/07/01 08:20:14;;;;;;;1.60;1.02;;;;;;;;;;5023833;28;20036;-61
2021/07/01 08:22:41;;;;;;;1.57;1.10;;;;;;;;;;5015262;28;20124;-61
2021/07/01 08:25:07;;;;;;;2.35;1.40;;;;;;;;;;5047349;28;20145;-61
2021/07/01 08:27:33;;;;;;;1.80;1.10;;;;;;;;;;5006911;28;20034;-61
2021/07/01 08:30:00;;;;;;;2.35;1.30;;;;;;;;;;5023820;28;20038;-61
2021/07/01 08:32:26;;;;;;;2.08;1.17;;;;;;;;;;5031395;28;20085;-61
2021/07/01 08:34:51;;;;;;;1.85;1.48;;;;;;;;;;5030413;28;20103;-61
2021/07/01 08:37:20;;;;;;;1.20;1.10;;;;;;;;;;5032706;28;20450;-61
2021/07/01 08:39:46;;;;;;;2.03;1.30;;;;;;;;;;5030400;28;20085;-61
2021/07/01 08:42:13;;;;;;;1.65;1.27;;;;;;;;;;5015107;28;20034;-61
2021/07/01 08:44:44;;;;;;;1.95;1.55;;;;;;;;;;5045601;28;20095;-62
2021/07/01 08:47:16;;;;;;;2.80;1.33;;;;;;;;;;5022748;28;21286;-62
2021/07/01 08:49:55;;;;;;;1.83;1.48;;;;;;;;;;5032629;28;20069;-62
2021/07/01 08:52:31;;;;;;;2.50;1.33;;;;;;;;;;5017229;28;20091;-61
2021/07/01 08:55:02;;;;;;;2.33;1.77;;;;;;;;;;5047449;28;20092;-61
2021/07/01 08:57:35;;;;;;;1.23;1.10;;;;;;;;;;5031667;28;20041;-62
2021/07/01 09:00:14;;;;;;;1.30;1.20;;;;;;;;;;5030958;28;20037;-61
2021/07/01 09:02:46;;;;;;;2.05;1.30;;;;;;;;;;5014749;28;20303;-61
2021/07/01 09:05:16;;;;;;;1.30;1.20;;;;;;;;;;5031389;28;20788;-62
2021/07/01 09:07:48;;;;;;;2.45;1.63;;;;;;;;;;5031627;28;20030;-61
2021/07/01 09:10:14;;;;;;;1.77;1.45;;;;;;;;;;5030062;28;20581;-61
2021/07/01 09:12:43;;;;;;;2.42;1.70;;;;;;;;;;5045051;28;20057;-61
2021/07/01 09:15:09;;;;;;;2.63;1.60;;;;;;;;;;5031309;28;20069;-62
2021/07/01 09:17:36;;;;;;;2.20;1.52;;;;;;;;;;5016102;28;20042;-61
2021/07/01 09:20:07;;;;;;;3.05;1.95;;;;;;;;;;5032774;28;20037;-62
2021/07/01 09:22:33;;;;;;;2.55;2.17;;;;;;;;;;5029744;28;20051;-61
2021/07/01 09:24:59;;;;;;;3.05;2.28;;;;;;;;;;5017747;28;20906;-61
2021/07/01 09:27:26;;;;;;;2.67;2.05;;;;;;;;;;5030368;28;20947;-62
2021/07/01 09:29:52;;;;;;;3.38;2.70;;;;;;;;;;5029925;28;20440;-62
2021/07/01 09:32:19;;;;;;;3.45;2.22;;;;;;;;;;5030704;28;20515;-61
2021/07/01 09:34:46;;;;;;;3.08;2.70;;;;;;;;;;5022660;28;20609;-61
2021/07/01 09:37:13;;;;;;;3.35;2.90;;;;;;;;;;5031216;28;20049;-61
2021/07/01 09:39:39;;;;;;;4.07;3.05;;;;;;;;;;5031186;28;20096;-61
2021/07/01 09:42:06;;;;;;;4.80;3.13;;;;;;;;;;5030219;28;20069;-62
2021/07/01 09:44:33;;;;;;;4.28;2.83;;;;;;;;;;5017126;28;20080;-61
2021/07/01 09:47:01;;;;;;;4.38;3.13;;;;;;;;;;5029927;28;20045;-62
2021/07/01 09:49:38;;;;;;;4.13;3.22;;;;;;;;;;5046878;28;20042;-62
2021/07/01 09:52:06;;;;;;;3.33;2.92;;;;;;;;;;5015892;28;21245;-62
2021/07/01 09:54:33;;;;;;;4.70;3.63;;;;;;;;;;5029978;28;20041;-61
2021/07/01 09:57:04;;;;;;;4.30;3.40;;;;;;;;;;5031311;28;20031;-62
2021/07/01 09:59:35;;;;;;;4.32;3.50;;;;;;;;;;5031117;28;20038;-61
2021/07/01 10:02:12;;;;;;;4.40;3.00;;;;;;;;;;5030257;28;20045;-62
2021/07/01 10:04:37;;;;;;;4.22;3.35;;;;;;;;;;5029940;28;20529;-61
2021/07/01 10:07:09;;;;;;;4.30;3.17;;;;;;;;;;5030454;28;20037;-61
2021/07/01 10:09:34;;;;;;;4.55;3.30;;;;;;;;;;5031330;28;20068;-62
2021/07/01 10:12:00;;;;;;;2.90;2.60;;;;;;;;;;5029153;28;20045;-61
2021/07/01 10:14:39;;;;;;;3.60;2.70;;;;;;;;;;5000934;28;20481;-61
2021/07/01 10:17:16;;;;;;;3.30;2.50;;;;;;;;;;5039074;28;20583;-62
2021/07/01 10:19:44;;;;;;;3.83;2.80;;;;;;;;;;5022818;28;20115;-61
2021/07/01 10:22:12;;;;;;;3.45;2.70;;;;;;;;;;5021889;28;20612;-62
2021/07/01 10:24:54;;;;;;;2.40;2.13;;;;;;;;;;5031397;28;20855;-61
2021/07/01 10:27:41;;;;;;;4.18;2.80;;;;;;;;;;5044825;28;20088;-61
2021/07/01 10:30:18;;;;;;;2.65;2.35;;;;;;;;;;5030079;28;20136;-61
2021/07/01 10:32:50;;;;;;;2.85;2.20;;;;;;;;;;5030389;28;20088;-62
2021/07/01 10:35:18;;;;;;;;;;;;;;;;;;5027427;28;20061;-62
2021/07/01 10:37:57;;;;;;;2.78;2.00;;;;;;;;;;5043929;28;19921;-62
2021/07/01 10:40:23;;;;;;;3.20;2.30;;;;;;;;;;5030648;28;20038;-62
2021/07/01 10:42:50;;;;;;;2.15;1.95;;;;;;;;;;5028703;28;20037;-62
2021/07/01 10:45:17;;;;;;;2.38;1.85;;;;;;;;;;5017146;28;20044;-62
2021/07/01 10:47:42;;;;;;;2.58;1.90;;;;;;;;;;5029958;28;20033;-62
2021/07/01 10:50:24;;;;;;;2.22;1.55;;;;;;;;;;5015176;28;20394;-62
2021/07/01 10:52:50;;;;;;;2.05;1.67;;;;;;;;;;5045806;28;20030;-62
2021/07/01 10:55:17;;;;;;;1.60;1.50;;;;;;;;;;5028919;28;20440;-61
2021/07/01 10:57:56;;;;;;;2.85;1.90;;;;;;;;;;5029440;28;20051;-61
2021/07/01 11:00:45;;;;;;;3.22;1.75;;;;;;;;;;5022072;28;20140;-61
2021/07/01 11:03:12;;;;;;;2.47;1.75;;;;;;;;;;5029456;28;20038;-61
2021/07/01 11:05:38;;;;;;;2.35;1.83;;;;;;;;;;5045135;28;20041;-61
2021/07/01 11:08:04;;;;;;;2.58;1.90;;;;;;;;;;5030274;28;20776;-62
2021/07/01 11:10:35;;;;;;;3.00;1.80;;;;;;;;;;5013972;28;20083;-61
2021/07/01 11:13:08;;;;;;;2.22;1.65;;;;;;;;;;5021120;28;20033;-61
2021/07/01 11:15:34;;;;;;;1.67;1.52;;;;;;;;;;5013923;28;20030;-61
2021/07/01 11:18:08;;;;;;;2.05;1.40;;;;;;;;;;5012953;28;20045;-60
2021/07/01 11:20:33;;;;;;;1.75;1.55;;;;;;;;;;5029613;28;20038;-60
2021/07/01 11:23:00;;;;;;;2.22;1.67;;;;;;;;;;5028347;28;20111;-61
2021/07/01 11:25:27;;;;;;;2.42;1.80;;;;;;;;;;5012330;28;20042;-60
2021/07/01 11:28:12;;;;;;;2.20;1.83;;;;;;;;;;5018488;28;20379;-60
2021/07/01 11:30:46;;;;;;;1.92;1.60;;;;;;;;;;5027951;28;21014;-61
2021/07/01 11:33:13;;;;;;;2.20;1.80;;;;;;;;;;5028950;28;20033;-61
2021/07/01 11:35:39;;;;;;;2.00;1.80;;;;;;;;;;5010731;28;20128;-61
2021/07/01 11:38:04;;;;;;;1.60;1.50;;;;;;;;;;5028501;28;20045;-60
2021/07/01 11:40:30;;;;;;;1.50;1.40;;;;;;;;;;5014583;28;20497;-60
2021/07/01 11:42:56;;;;;;;2.50;1.40;;;;;;;;;;5000399;28;20034;-60
2021/07/01 11:45:22;;;;;;;1.30;1.15;;;;;;;;;;5016991;28;20590;-60
2021/07/01 11:47:51;;;;;;;1.30;1.20;;;;;;;;;;5024278;28;20029;-60
2021/07/01 11:50:16;;;;;;;1.50;1.30;;;;;;;;;;5031724;28;20033;-61
2021/07/01 11:52:42;;;;;;;1.65;1.42;;;;;;;;;;5031977;28;20033;-61
2021/07/01 11:55:08;;;;;;;1.40;1.10;;;;;;;;;;5033637;28;20060;-60
2021/07/01 11:57:33;;;;;;;2.00;1.42;;;;;;;;;;5023279;28;20053;-61
2021/07/01 11:59:59;;;;;;;2.35;1.40;;;;;;;;;;5032891;28;20038;-61
2021/07/01 12:02:24;;;;;;;2.00;1.60;;;;;;;;;;5032747;28;20030;-61
2021/07/01 12:04:50;;;;;;;1.70;1.50;;;;;;;;;;5014634;28;20935;-61
2021/07/01 12:07:23;;;;;;;1.50;1.30;;;;;;;;;;5031815;28;20068;-61
2021/07/01 12:09:49;;;;;;;1.50;1.40;;;;;;;;;;5016079;28;20085;-62
2021/07/01 12:12:22;;;;;;;1.52;1.42;;;;;;;;;;5022394;28;20419;-61
2021/07/01 12:15:07;;;;;;;1.88;1.67;;;;;;;;;;5032160;28;20033;-61
2021/07/01 12:17:52;;;;;;;1.90;1.55;;;;;;;;;;5030492;28;20099;-61
2021/07/01 12:20:27;;;;;;;1.90;1.70;;;;;;;;;;5032717;28;20038;-61
2021/07/01 12:22:54;;;;;;;2.00;1.75;;;;;;;;;;5031884;28;20088;-61
2021/07/01 12:25:25;;;;;;;2.30;2.10;;;;;;;;;;5031734;28;20038;-61
2021/07/01 12:28:07;;;;;;;1.83;1.73;;;;;;;;;;5031449;28;20531;-61
2021/07/01 12:30:58;;;;;;;2.10;1.83;;;;;;;;;;5022103;28;20046;-61
2021/07/01 12:33:46;;;;;;;2.33;2.03;;;;;;;;;;5030076;28;20189;-61
2021/07/01 12:36:24;;;;;;;2.33;1.70;;;;;;;;;;5047365;28;20257;-61
2021/07/01 12:39:06;;;;;;;1.88;1.60;;;;;;;;;;5030178;28;20048;-61
2021/07/01 12:41:45;;;;;;;1.40;1.30;;;;;;;;;;5020593;28;20149;-62
2021/07/01 12:44:18;;;;;;;1.50;1.40;;;;;;;;;;5031663;28;20136;-60
2021/07/01 12:46:46;;;;;;;2.08;1.83;;;;;;;;;;5029739;28;20840;-60
2021/07/01 12:49:14;;;;;;;2.20;1.70;;;;;;;;;;5004911;28;21209;-60
2021/07/01 12:51:41;;;;;;;2.00;1.80;;;;;;;;;;5020516;28;20163;-60
2021/07/01 12:54:30;;;;;;;2.03;1.73;;;;;;;;;;5025563;28;20046;-60
2021/07/01 12:56:56;;;;;;;1.90;1.60;;;;;;;;;;5021393;28;20136;-60
2021/07/01 12:59:25;;;;;;;1.65;1.55;;;;;;;;;;5029800;28;20324;-60
2021/07/01 13:01:51;;;;;;;2.15;1.63;;;;;;;;;;5028613;28;20026;-60
2021/07/01 13:04:27;;;;;;;1.63;1.48;;;;;;;;;;5030182;28;20108;-60
2021/07/01 13:06:57;;;;;;;1.50;1.40;;;;;;;;;;5045461;28;20029;-60
2021/07/01 13:09:30;;;;;;;1.60;1.50;;;;;;;;;;5015224;28;20222;-61
2021/07/01 13:11:56;;;;;;;2.63;1.67;;;;;;;;;;5046294;28;20034;-61
2021/07/01 13:14:26;;;;;;;1.60;1.45;;;;;;;;;;5016874;28;20041;-61
2021/07/01 13:17:14;;;;;;;1.55;1.33;;;;;;;;;;5015099;28;20033;-61
2021/07/01 13:19:44;;;;;;;2.10;1.27;;;;;;;;;;5022050;28;20044;-61
2021/07/01 13:22:15;;;;;;;1.25;1.15;;;;;;;;;;5032510;28;20137;-61
2021/07/01 13:25:02;;;;;;;1.27;1.17;;;;;;;;;;5044582;28;20410;-60
2021/07/01 13:27:31;;;;;;;1.13;1.00;;;;;;;;;;5045303;28;20405;-60
2021/07/01 13:29:57;;;;;;;0.80;0.80;;;;;;;;;;5029914;28;20041;-61
2021/07/01 13:32:24;;;;;;;0.93;0.90;;;;;;;;;;5030475;28;20118;-62
2021/07/01 13:34:51;;;;;;;1.25;1.15;;;;;;;;;;5031204;28;20069;-62
2021/07/01 13:37:20;;;;;;;0.95;0.95;;;;;;;;;;5017460;28;20421;-62
2021/07/01 13:39:47;;;;;;;1.27;1.13;;;;;;;;;;5030610;28;20490;-60
2021/07/01 13:42:28;;;;;;;1.25;1.10;;;;;;;;;;5045174;28;20041;-61
2021/07/01 13:45:06;;;;;;;1.73;0.90;;;;;;;;;;5037828;28;20458;-61
2021/07/01 13:47:41;;;;;;;1.20;1.10;;;;;;;;;;5014471;28;20468;-62
2021/07/01 13:50:08;;;;;;;0.80;0.75;;;;;;;;;;5015118;28;20540;-62
2021/07/01 13:52:34;;;;;;;1.10;1.00;;;;;;;;;;5021584;28;20041;-61
2021/07/01 13:54:59;;;;;;;1.08;0.80;;;;;;;;;;5032258;28;21154;-61
2021/07/01 13:57:29;;;;;;;1.10;1.00;;;;;;;;;;5029964;28;20439;-61
2021/07/01 13:59:58;;;;;;;1.10;1.00;;;;;;;;;;5030624;28;20072;-64
2021/07/01 14:02:25;;;;;;;1.20;0.88;;;;;;;;;;5030265;28;20048;-65
2021/07/01 14:04:50;;;;;;;1.23;0.82;;;;;;;;;;5029836;28;20034;-66
2021/07/01 14:07:30;;;;;;;0.82;0.80;;;;;;;;;;5027704;28;20832;-66
2021/07/01 14:10:09;;;;;;;0.80;0.80;;;;;;;;;;5030172;28;20124;-65
2021/07/01 14:12:36;;;;;;;0.77;0.75;;;;;;;;;;5031864;28;20104;-66
2021/07/01 14:15:02;;;;;;;0.70;0.70;;;;;;;;;;5021795;28;20037;-65
2021/07/01 14:17:29;;;;;;;0.63;0.63;;;;;;;;;;5015272;28;20501;-68
2021/07/01 14:19:55;;;;;;;0.75;0.60;;;;;;;;;;5030127;28;20192;-65
2021/07/01 14:22:40;;;;;;;0.50;0.50;;;;;;;;;;5016791;28;20098;-66
2021/07/01 14:25:26;;;;;;;0.80;0.75;;;;;;;;;;5030277;28;20513;-67
2021/07/01 14:28:10;;;;;;;0.60;0.60;;;;;;;;;;5029618;28;20062;-66
2021/07/01 14:30:43;;;;;;;0.80;0.80;;;;;;;;;;5031479;28;20038;-65
2021/07/01 14:33:33;;;;;;;0.63;0.55;;;;;;;;;;5029170;28;20044;-66
2021/07/01 14:36:03;;;;;;;0.60;0.60;;;;;;;;;;5030694;28;20041;-65
2021/07/01 14:38:31;;;;;;;0.70;0.70;;;;;;;;;;5030504;28;20481;-64
2021/07/01 14:41:01;;;;;;;0.65;0.63;;;;;;;;;;5029229;28;20045;-64
2021/07/01 14:43:32;;;;;;;0.60;0.60;;;;;;;;;;5030313;28;20048;-64
2021/07/01 14:46:16;;;;;;;0.75;0.75;;;;;;;;;;5029428;28;20032;-66
2021/07/01 14:48:42;;;;;;;0.77;0.77;;;;;;;;;;5017238;28;20505;-65
2021/07/01 14:51:13;;;;;;;0.65;0.65;;;;;;;;;;5029705;28;20538;-64
2021/07/01 14:53:39;;;;;;;0.77;0.68;;;;;;;;;;5044039;28;20081;-63
2021/07/01 14:56:04;;;;;;;0.80;0.60;;;;;;;;;;5004417;28;20096;-60
2021/07/01 14:58:45;;;;;;;0.60;0.60;;;;;;;;;;5029648;28;20044;-60
2021/07/01 15:01:15;;;;;;;0.50;0.50;;;;;;;;;;5030059;28;20936;-60
2021/07/01 15:03:41;;;;;;;0.55;0.55;;;;;;;;;;5028492;28;20064;-61